createdAt,value
2022-08-17T00:00:40.541Z,18.18
2022-08-17T00:05:48.669Z,18.02
2022-08-17T00:10:56.633Z,18.01
2022-08-17T00:16:04.697Z,17.93
2022-08-17T00:21:11.237Z,17.76
2022-08-17T00:26:19.599Z,17.7
2022-08-17T00:31:28.032Z,17.67
2022-08-17T00:36:36.928Z,17.68
2022-08-17T00:41:44.547Z,17.82
2022-08-17T00:46:51.738Z,17.94
2022-08-17T00:51:59.443Z,17.84
2022-08-17T00:57:07.046Z,17.71
2022-08-17T01:02:15.888Z,17.79
2022-08-17T01:07:23.436Z,17.74
2022-08-17T01:12:31.491Z,17.69
2022-08-17T01:17:38.812Z,17.74
2022-08-17T01:22:47.763Z,17.79
2022-08-17T01:37:06.308Z,17.58
2022-08-17T01:42:12.796Z,17.41
2022-08-17T01:47:22.330Z,17.17
2022-08-17T01:52:28.383Z,16.94
2022-08-17T01:57:36.213Z,16.76
2022-08-17T02:02:43.434Z,16.75
2022-08-17T02:07:50.571Z,16.71
2022-08-17T02:12:58.783Z,16.62
2022-08-17T02:18:06.305Z,16.44
2022-08-17T02:23:13.497Z,16.36
2022-08-17T02:28:21.129Z,16.32
2022-08-17T02:33:27.900Z,16.48
2022-08-17T02:38:36.893Z,16.48
2022-08-17T02:43:44.234Z,16.47
2022-08-17T02:48:52.342Z,16.32
2022-08-17T02:53:59.962Z,16.08
2022-08-17T02:59:07.513Z,15.98
2022-08-17T03:04:14.357Z,15.9
2022-08-17T03:09:22.324Z,15.86
2022-08-17T03:14:30.274Z,15.75
2022-08-17T03:19:37.320Z,15.54
2022-08-17T03:24:44.632Z,15.48
2022-08-17T03:29:52.214Z,15.66
2022-08-17T03:35:00.168Z,15.72
2022-08-17T03:40:07.289Z,15.68
2022-08-17T03:45:14.485Z,15.75
2022-08-17T03:50:22.871Z,15.62
2022-08-17T03:55:31.017Z,15.44
2022-08-17T04:00:37.331Z,15.32
2022-08-17T04:05:45.173Z,15.34
2022-08-17T04:10:54.046Z,15.36
2022-08-17T04:16:02.313Z,15.3
2022-08-17T04:21:10.129Z,15.3
2022-08-17T04:26:17.998Z,15.94
2022-08-17T04:31:25.638Z,16.73
2022-08-17T04:36:34.703Z,17.46
2022-08-17T04:41:44.263Z,18.12
2022-08-17T04:46:51.691Z,18.75
2022-08-17T04:52:07.259Z,19.3
2022-08-17T04:57:15.386Z,19.92
2022-08-17T05:02:22.315Z,20.57
2022-08-17T05:07:29.487Z,20.92
2022-08-17T05:12:37.381Z,21.48
2022-08-17T05:17:44.769Z,22.01
2022-08-17T05:22:52.497Z,22.52
2022-08-17T05:27:59.611Z,23.25
2022-08-17T05:33:07.866Z,24.02
2022-08-17T05:38:15.859Z,24.58
2022-08-17T05:43:24.039Z,24.74
2022-08-17T05:48:38.084Z,25.0
2022-08-17T05:53:45.855Z,25.1
2022-08-17T05:58:54.065Z,25.38
2022-08-17T06:04:01.887Z,25.98
2022-08-17T06:09:09.187Z,26.33
2022-08-17T06:14:16.985Z,26.68
2022-08-17T06:19:23.935Z,26.9
2022-08-17T06:24:31.526Z,27.34
2022-08-17T06:29:38.144Z,27.66
2022-08-17T06:34:45.746Z,27.96
2022-08-17T06:39:53.781Z,28.12
2022-08-17T06:45:00.391Z,28.34
2022-08-17T06:50:07.615Z,28.36
2022-08-17T06:55:15.282Z,28.36
2022-08-17T07:00:22.885Z,28.57
2022-08-17T07:05:31.091Z,28.4
2022-08-17T07:15:40.969Z,28.75
2022-08-17T07:16:43.777Z,28.75
2022-08-17T07:21:49.871Z,28.68
2022-08-17T07:26:57.576Z,28.79
2022-08-17T07:32:06.522Z,29.04
2022-08-17T07:37:13.839Z,29.31
2022-08-17T07:42:22.816Z,29.47
2022-08-17T07:47:30.171Z,29.64
2022-08-17T07:52:37.931Z,29.54
2022-08-17T07:57:45.001Z,29.9
2022-08-17T08:02:53.339Z,30.24
2022-08-17T08:08:02.946Z,30.71
2022-08-17T08:13:11.183Z,30.84
2022-08-17T08:23:47.714Z,31.6
2022-08-17T08:28:55.834Z,31.78
2022-08-17T08:34:03.453Z,32.51
2022-08-17T08:39:12.734Z,32.97
2022-08-17T08:44:20.655Z,33.02
2022-08-17T08:49:28.879Z,33.28
2022-08-17T08:54:37.286Z,33.61
2022-08-17T08:59:45.818Z,33.97
2022-08-17T09:04:54.242Z,34.04
2022-08-17T09:10:01.900Z,33.98
2022-08-17T09:15:09.862Z,34.22
2022-08-17T09:20:16.896Z,34.42
2022-08-17T09:25:24.359Z,34.66
2022-08-17T09:30:32.109Z,34.45
2022-08-17T09:35:40.384Z,34.02
2022-08-17T09:40:48.197Z,33.62
2022-08-17T09:45:56.615Z,34.12
2022-08-17T09:51:04.796Z,34.1
2022-08-17T09:56:12.409Z,34.46
2022-08-17T10:01:20.289Z,34.54
2022-08-17T10:06:27.412Z,34.43
2022-08-17T10:11:35.582Z,34.54
2022-08-17T10:16:43.709Z,34.81
2022-08-17T10:21:52.137Z,34.9
2022-08-17T10:26:59.015Z,34.81
2022-08-17T10:32:06.139Z,34.59
2022-08-17T10:37:13.811Z,34.69
2022-08-17T10:42:22.162Z,34.9
2022-08-17T10:47:29.250Z,34.89
2022-08-17T10:52:38.075Z,34.84
2022-08-17T10:57:45.592Z,35.01
2022-08-17T11:02:54.936Z,35.2
2022-08-17T11:08:02.168Z,34.93
2022-08-17T11:13:09.737Z,35.16
2022-08-17T11:18:18.365Z,35.61
2022-08-17T11:23:26.299Z,35.44
2022-08-17T11:28:33.536Z,35.62
2022-08-17T11:33:41.565Z,36.13
2022-08-17T11:38:50.332Z,36.29
2022-08-17T11:43:58.297Z,36.38
2022-08-17T11:49:06.005Z,36.08
2022-08-17T11:54:14.617Z,35.32
2022-08-17T11:59:27.810Z,35.54
2022-08-17T12:04:34.407Z,35.76
2022-08-17T12:09:42.275Z,35.74
2022-08-17T12:14:48.688Z,35.72
2022-08-17T12:19:55.414Z,35.4
2022-08-17T12:25:02.494Z,35.34
2022-08-17T12:30:10.806Z,35.63
2022-08-17T12:35:17.681Z,35.44
2022-08-17T12:40:24.541Z,35.48
2022-08-17T12:45:32.062Z,35.43
2022-08-17T12:50:39.824Z,34.97
2022-08-17T12:55:46.257Z,35.02
2022-08-17T13:00:54.940Z,35.2
2022-08-17T13:06:01.865Z,34.92
2022-08-17T13:11:09.051Z,34.89
2022-08-17T13:16:16.929Z,35.12
2022-08-17T13:21:25.255Z,35.1
2022-08-17T13:26:33.546Z,35.2
2022-08-17T13:31:41.801Z,35.53
2022-08-17T13:36:49.634Z,35.54
2022-08-17T13:41:56.043Z,35.28
2022-08-17T13:47:03.921Z,35.18
2022-08-17T13:52:12.518Z,35.09
2022-08-17T13:57:20.246Z,35.48
2022-08-17T14:02:27.448Z,35.48
2022-08-17T14:07:34.327Z,35.38
2022-08-17T14:12:42.832Z,35.24
2022-08-17T14:17:50.534Z,35.74
2022-08-17T14:22:58.497Z,36.15
2022-08-17T14:28:05.350Z,35.88
2022-08-17T14:33:13.353Z,35.56
2022-08-17T14:38:22.124Z,35.61
2022-08-17T14:43:29.498Z,36.52
2022-08-17T14:48:36.743Z,35.97
2022-08-17T14:53:45.045Z,36.22
2022-08-17T14:58:52.780Z,35.58
2022-08-17T15:04:04.786Z,34.92
2022-08-17T15:09:12.502Z,34.44
2022-08-17T15:14:19.741Z,34.04
2022-08-17T15:19:27.950Z,34.34
2022-08-17T15:24:34.779Z,34.4
2022-08-17T15:29:42.720Z,34.08
2022-08-17T15:34:51.029Z,34.08
2022-08-17T15:39:58.925Z,33.92
2022-08-17T15:45:06.760Z,33.29
2022-08-17T15:50:19.664Z,33.0
2022-08-17T15:55:27.193Z,32.8
2022-08-17T16:00:34.567Z,32.7
2022-08-17T16:05:41.059Z,32.57
2022-08-17T16:10:49.853Z,32.48
2022-08-17T16:15:56.448Z,32.4
2022-08-17T16:21:04.453Z,32.24
2022-08-17T16:26:12.626Z,32.07
2022-08-17T16:31:21.273Z,31.96
2022-08-17T16:36:28.911Z,31.82
2022-08-17T16:41:37.708Z,31.72
2022-08-17T16:46:44.338Z,31.54
2022-08-17T16:51:52.543Z,31.29
2022-08-17T16:57:00.636Z,31.1
2022-08-17T17:02:08.560Z,30.92
2022-08-17T17:07:15.866Z,30.7
2022-08-17T17:12:23.686Z,30.46
2022-08-17T17:17:31.683Z,30.22
2022-08-17T17:22:39.503Z,29.97
2022-08-17T17:27:46.861Z,29.67
2022-08-17T17:32:54.660Z,29.4
2022-08-17T17:38:02.554Z,29.14
2022-08-17T17:43:09.698Z,28.84
2022-08-17T17:48:16.984Z,28.6
2022-08-17T17:53:25.043Z,28.36
2022-08-17T17:58:32.507Z,28.01
2022-08-17T18:03:40.181Z,27.7
2022-08-17T18:08:47.562Z,27.36
2022-08-17T18:13:55.691Z,27.07
2022-08-17T18:19:03.293Z,26.78
2022-08-17T18:24:10.458Z,26.44
2022-08-17T18:29:17.750Z,26.2
2022-08-17T18:34:24.588Z,25.94
2022-08-17T18:39:33.281Z,25.72
2022-08-17T18:44:40.700Z,25.47
2022-08-17T18:49:48.194Z,25.25
2022-08-17T18:54:56.722Z,25.21
2022-08-17T19:00:10.783Z,25.12
2022-08-17T19:05:17.773Z,25.01
2022-08-17T19:10:24.897Z,24.78
2022-08-17T19:15:31.446Z,24.6
2022-08-17T19:20:38.656Z,24.36
2022-08-17T19:25:46.899Z,24.16
2022-08-17T19:30:53.699Z,23.92
2022-08-17T19:36:01.441Z,23.65
2022-08-17T19:41:10.196Z,23.42
2022-08-17T19:46:17.405Z,23.25
2022-08-17T19:51:26.761Z,23.17
2022-08-17T19:56:34.181Z,23.02
2022-08-17T20:01:42.613Z,22.92
2022-08-17T20:06:52.558Z,22.97
2022-08-17T20:12:00.184Z,22.85
2022-08-17T20:17:06.811Z,22.64
2022-08-17T20:22:14.011Z,22.42
2022-08-17T20:27:22.697Z,22.26
2022-08-17T20:32:30.616Z,22.12
2022-08-17T20:37:37.601Z,22.01
2022-08-17T20:42:45.052Z,21.93
2022-08-17T20:47:53.107Z,21.73
2022-08-17T20:53:01.054Z,21.68
2022-08-17T20:58:09.310Z,21.64
2022-08-17T21:03:16.090Z,21.7
2022-08-17T21:08:23.895Z,21.72
2022-08-17T21:13:31.768Z,21.69
2022-08-17T21:18:39.401Z,21.58
2022-08-17T21:23:47.486Z,21.43
2022-08-17T21:28:54.651Z,21.28
2022-08-17T21:34:01.855Z,21.16
2022-08-17T21:39:09.923Z,21.07
2022-08-17T21:44:19.916Z,20.92
2022-08-17T21:49:26.656Z,20.79
2022-08-17T21:54:33.857Z,20.66
2022-08-17T21:59:41.705Z,20.52
2022-08-17T22:04:49.992Z,20.54
2022-08-17T22:09:58.172Z,20.6
2022-08-17T22:15:05.958Z,20.6
2022-08-17T22:20:14.007Z,20.4
2022-08-17T22:25:22.544Z,20.4
2022-08-17T22:30:29.370Z,20.46
2022-08-17T22:35:37.021Z,20.43
2022-08-17T22:40:45.382Z,20.38
2022-08-17T22:45:53.739Z,20.26
2022-08-17T22:51:01.938Z,20.15
2022-08-17T22:56:09.216Z,20.16
2022-08-17T23:01:16.413Z,20.12
2022-08-17T23:06:23.414Z,20.09
2022-08-17T23:11:31.987Z,20.03
2022-08-17T23:16:40.579Z,19.93
2022-08-17T23:21:48.079Z,19.83
2022-08-17T23:26:55.857Z,19.69
2022-08-17T23:32:04.261Z,19.57
2022-08-17T23:37:11.339Z,19.51
2022-08-17T23:42:19.708Z,19.49
2022-08-17T23:47:27.822Z,19.49
2022-08-17T23:52:35.859Z,19.43
2022-08-17T23:57:44.132Z,19.4
